createdAt,value
2023-03-27T00:01:53.002Z,0.50
2023-03-27T00:04:55.803Z,0.50
2023-03-27T00:08:01.727Z,0.55
2023-03-27T00:11:05.018Z,0.40
2023-03-27T00:14:07.522Z,0.50
2023-03-27T00:17:11.247Z,0.60
2023-03-27T00:20:21.862Z,0.30
2023-03-27T00:23:24.468Z,0.50
2023-03-27T00:26:26.861Z,0.52
2023-03-27T00:29:29.188Z,0.50
2023-03-27T00:32:31.516Z,0.40
2023-03-27T00:35:34.095Z,0.47
2023-03-27T00:38:36.821Z,0.30
2023-03-27T00:41:39.373Z,0.55
2023-03-27T00:44:42.558Z,0.47
2023-03-27T00:47:46.213Z,0.37
2023-03-27T00:50:49.682Z,0.30
2023-03-27T00:53:52.887Z,0.30
2023-03-27T00:56:57.165Z,0.50
2023-03-27T01:00:00.914Z,0.32
2023-03-27T01:03:06.262Z,0.30
2023-03-27T01:06:09.482Z,0.43
2023-03-27T01:09:20.440Z,0.38
2023-03-27T01:12:29.538Z,0.50
2023-03-27T01:15:44.906Z,0.43
2023-03-27T01:19:14.654Z,0.40
2023-03-27T01:22:41.564Z,0.30
2023-03-27T01:25:59.221Z,0.30
2023-03-27T01:29:22.599Z,0.28
2023-03-27T01:32:37.614Z,0.30
2023-03-27T01:36:10.657Z,0.40
2023-03-27T01:39:28.689Z,0.50
2023-03-27T01:42:36.587Z,0.50
2023-03-27T01:45:45.876Z,0.20
2023-03-27T01:48:52.122Z,0.77
2023-03-27T01:52:03.857Z,0.60
2023-03-27T01:55:11.204Z,0.50
2023-03-27T01:58:18.548Z,0.50
2023-03-27T02:01:24.971Z,0.40
2023-03-27T02:04:51.491Z,0.43
2023-03-27T02:08:02.296Z,0.47
2023-03-27T02:11:05.706Z,0.50
2023-03-27T02:14:13.154Z,0.50
2023-03-27T02:17:18.710Z,0.35
2023-03-27T02:20:21.193Z,0.55
2023-03-27T02:23:23.718Z,0.50
2023-03-27T02:26:26.637Z,0.50
2023-03-27T02:29:34.859Z,0.60
2023-03-27T02:32:40.618Z,0.68
2023-03-27T02:35:55.881Z,0.55
2023-03-27T02:39:04.276Z,0.50
2023-03-27T02:42:32.196Z,0.33
2023-03-27T02:45:52.375Z,0.45
2023-03-27T02:48:59.675Z,0.40
2023-03-27T02:52:07.768Z,0.40
2023-03-27T02:55:19.091Z,0.50
2023-03-27T02:58:38.134Z,0.40
2023-03-27T03:01:46.921Z,0.40
2023-03-27T03:05:09.635Z,0.50
2023-03-27T03:08:14.816Z,0.45
2023-03-27T03:11:17.407Z,0.30
2023-03-27T03:14:23.190Z,0.50
2023-03-27T03:17:25.801Z,0.40
2023-03-27T03:20:29.741Z,0.60
2023-03-27T03:23:32.098Z,0.57
2023-03-27T03:26:36.681Z,0.60
2023-03-27T03:29:40.260Z,0.60
2023-03-27T03:32:51.754Z,0.40
2023-03-27T03:35:54.229Z,0.40
2023-03-27T03:39:04.343Z,0.60
2023-03-27T03:42:07.075Z,0.73
2023-03-27T03:45:10.040Z,0.60
2023-03-27T03:48:12.833Z,0.45
2023-03-27T03:51:15.487Z,0.40
2023-03-27T03:54:17.915Z,0.68
2023-03-27T03:57:20.286Z,0.40
2023-03-27T04:00:39.887Z,0.47
2023-03-27T04:03:49.922Z,0.40
2023-03-27T04:06:53.119Z,0.30
2023-03-27T04:09:55.982Z,0.57
2023-03-27T04:13:03.645Z,0.50
2023-03-27T04:16:09.960Z,0.40
2023-03-27T04:19:18.324Z,0.28
2023-03-27T04:22:24.038Z,0.40
2023-03-27T04:25:26.449Z,0.40
2023-03-27T04:28:34.672Z,0.40
2023-03-27T04:31:52.231Z,0.40
2023-03-27T04:35:12.954Z,0.40
2023-03-27T04:38:32.323Z,0.30
2023-03-27T04:41:35.523Z,0.40
2023-03-27T04:44:38.145Z,0.40
2023-03-27T04:47:40.669Z,0.40
2023-03-27T04:50:49.284Z,0.40
2023-03-27T04:54:05.077Z,0.40
2023-03-27T04:57:10.082Z,0.50
2023-03-27T05:00:16.516Z,0.20
2023-03-27T05:03:23.826Z,0.37
2023-03-27T05:06:40.848Z,0.40
2023-03-27T05:09:47.689Z,0.40
2023-03-27T05:12:51.557Z,0.40
2023-03-27T05:15:53.929Z,0.50
2023-03-27T05:18:58.844Z,0.47
2023-03-27T05:22:01.787Z,0.60
2023-03-27T05:25:05.406Z,0.75
2023-03-27T05:28:08.612Z,0.52
2023-03-27T05:31:12.571Z,0.53
2023-03-27T05:34:30.290Z,0.50
2023-03-27T05:37:39.677Z,0.77
2023-03-27T05:40:57.885Z,0.60
2023-03-27T05:44:04.307Z,0.80
2023-03-27T05:47:15.430Z,0.93
2023-03-27T05:50:19.509Z,0.70
2023-03-27T05:53:28.016Z,0.80
2023-03-27T05:57:01.586Z,0.80
2023-03-27T06:00:11.947Z,0.80
2023-03-27T06:03:20.053Z,1.00
2023-03-27T06:06:44.378Z,1.00
2023-03-27T06:10:00.147Z,1.00
2023-03-27T06:13:13.776Z,0.90
2023-03-27T06:16:26.580Z,1.13
2023-03-27T06:20:10.650Z,1.00
2023-03-27T06:23:13.559Z,1.23
2023-03-27T06:26:17.065Z,1.40
2023-03-27T06:29:19.774Z,1.35
2023-03-27T06:32:27.154Z,8.82
2023-03-27T06:35:32.195Z,4.93
2023-03-27T06:38:47.505Z,4.37
2023-03-27T06:41:50.162Z,3.83
2023-03-27T06:45:22.511Z,3.65
2023-03-27T06:48:54.446Z,2.60
2023-03-27T06:51:56.955Z,2.60
2023-03-27T06:54:59.484Z,2.40
2023-03-27T06:58:03.317Z,2.38
2023-03-27T07:01:05.995Z,2.35
2023-03-27T07:04:31.671Z,2.38
2023-03-27T07:07:57.524Z,2.37
2023-03-27T07:14:11.240Z,2.20
2023-03-27T07:17:13.629Z,1.98
2023-03-27T07:20:23.851Z,1.92
2023-03-27T07:23:26.886Z,2.20
2023-03-27T07:26:34.604Z,1.87
2023-03-27T07:29:39.597Z,2.08
2023-03-27T07:32:43.160Z,1.90
2023-03-27T07:35:46.924Z,1.60
2023-03-27T07:39:15.446Z,2.07
2023-03-27T07:42:17.994Z,1.90
2023-03-27T07:45:35.626Z,2.10
2023-03-27T07:48:38.595Z,1.80
2023-03-27T07:51:41.770Z,2.00
2023-03-27T07:54:44.323Z,1.90
2023-03-27T07:58:00.941Z,1.47
2023-03-27T08:01:08.313Z,1.40
2023-03-27T08:04:12.053Z,2.08
2023-03-27T08:07:16.812Z,2.30
2023-03-27T08:10:19.243Z,2.73
2023-03-27T08:13:31.281Z,1.80
2023-03-27T08:16:37.773Z,2.05
2023-03-27T08:19:40.671Z,2.00
2023-03-27T08:22:43.217Z,1.92
2023-03-27T08:26:09.803Z,2.00
2023-03-27T08:29:20.778Z,2.20
2023-03-27T08:32:23.896Z,1.83
2023-03-27T08:35:29.049Z,1.80
2023-03-27T08:38:33.655Z,1.83
2023-03-27T08:41:58.920Z,2.00
2023-03-27T08:45:30.329Z,1.83
2023-03-27T08:49:00.998Z,2.78
2023-03-27T08:52:09.326Z,1.60
2023-03-27T08:55:18.792Z,2.00
2023-03-27T08:58:36.176Z,2.37
2023-03-27T09:02:21.736Z,2.80
2023-03-27T09:05:35.844Z,2.00
2023-03-27T09:08:59.092Z,2.17
2023-03-27T09:12:30.116Z,2.33
2023-03-27T09:15:37.257Z,2.20
2023-03-27T09:19:24.478Z,2.43
2023-03-27T09:22:36.950Z,2.22
2023-03-27T09:25:57.140Z,2.00
2023-03-27T09:29:34.788Z,2.17
2023-03-27T09:33:13.514Z,1.80
2023-03-27T09:36:19.956Z,2.10
2023-03-27T09:39:27.581Z,1.88
2023-03-27T09:42:44.166Z,1.90
2023-03-27T09:45:50.693Z,1.65
2023-03-27T09:49:13.910Z,1.80
2023-03-27T09:52:36.967Z,1.70
2023-03-27T09:56:07.351Z,1.67
2023-03-27T09:59:33.079Z,2.00
2023-03-27T10:02:42.088Z,1.80
2023-03-27T10:05:54.230Z,1.60
2023-03-27T10:09:19.360Z,1.90
2023-03-27T10:12:22.477Z,1.85
2023-03-27T10:15:33.289Z,2.13
2023-03-27T10:18:42.470Z,1.90
2023-03-27T10:21:52.743Z,1.70
2023-03-27T10:25:03.352Z,1.93
2023-03-27T10:28:36.813Z,1.92
2023-03-27T10:32:04.414Z,1.63
2023-03-27T10:35:43.702Z,1.40
2023-03-27T10:38:56.721Z,1.40
2023-03-27T10:42:26.796Z,2.20
2023-03-27T10:45:31.574Z,2.00
2023-03-27T10:49:17.579Z,2.00
2023-03-27T10:52:26.430Z,1.70
2023-03-27T10:55:45.017Z,1.93
2023-03-27T10:59:01.914Z,1.90
2023-03-27T11:02:17.589Z,2.05
2023-03-27T11:05:26.618Z,1.48
2023-03-27T11:08:39.425Z,2.00
2023-03-27T11:11:49.567Z,1.70
2023-03-27T11:14:58.064Z,1.30
2023-03-27T11:18:07.079Z,1.90
2023-03-27T11:21:24.119Z,1.85
2023-03-27T11:24:53.491Z,1.80
2023-03-27T11:28:03.899Z,1.90
2023-03-27T11:31:46.706Z,2.00
2023-03-27T11:35:23.262Z,1.38
2023-03-27T11:38:49.520Z,1.40
2023-03-27T11:41:57.630Z,1.50
2023-03-27T11:45:04.506Z,1.60
2023-03-27T11:48:39.664Z,1.73
2023-03-27T11:51:57.720Z,1.50
2023-03-27T11:55:23.426Z,2.78
2023-03-27T11:58:32.320Z,1.52
2023-03-27T12:01:36.157Z,1.50
2023-03-27T12:04:49.931Z,1.57
2023-03-27T12:08:23.066Z,1.30
2023-03-27T12:11:29.257Z,1.30
2023-03-27T12:15:10.170Z,1.20
2023-03-27T12:18:32.314Z,1.40
2023-03-27T12:22:17.520Z,1.63
2023-03-27T12:25:51.568Z,1.23
2023-03-27T12:29:23.161Z,1.60
2023-03-27T12:32:43.731Z,1.73
2023-03-27T12:35:50.351Z,1.47
2023-03-27T12:38:55.868Z,1.43
2023-03-27T12:42:13.332Z,2.03
2023-03-27T12:45:18.236Z,1.65
2023-03-27T12:48:23.992Z,1.38
2023-03-27T12:51:51.134Z,1.30
2023-03-27T12:55:13.837Z,1.80
2023-03-27T12:58:35.156Z,1.40
2023-03-27T13:01:59.816Z,1.52
2023-03-27T13:05:27.900Z,1.35
2023-03-27T13:08:53.172Z,1.20
2023-03-27T13:12:12.748Z,1.23
2023-03-27T13:15:35.112Z,1.38
2023-03-27T13:18:51.608Z,1.50
2023-03-27T13:22:13.397Z,1.75
2023-03-27T13:25:36.100Z,1.50
2023-03-27T13:28:39.797Z,2.20
2023-03-27T13:31:49.095Z,1.50
2023-03-27T13:35:23.745Z,1.50
2023-03-27T13:39:06.006Z,1.77
2023-03-27T13:42:14.346Z,1.93
2023-03-27T13:45:29.723Z,1.60
2023-03-27T13:49:15.921Z,1.60
2023-03-27T13:53:02.458Z,1.48
2023-03-27T13:56:43.270Z,1.83
2023-03-27T14:00:31.431Z,1.57
2023-03-27T14:03:57.790Z,1.73
2023-03-27T14:07:19.132Z,1.38
2023-03-27T14:10:40.898Z,1.75
2023-03-27T14:14:00.395Z,1.80
2023-03-27T14:17:12.163Z,1.70
2023-03-27T14:20:21.969Z,1.50
2023-03-27T14:23:28.923Z,1.67
2023-03-27T14:26:46.607Z,1.75
2023-03-27T14:30:28.282Z,2.80
2023-03-27T14:34:03.978Z,2.00
2023-03-27T14:37:29.530Z,2.00
2023-03-27T14:40:47.532Z,2.00
2023-03-27T14:43:53.963Z,2.00
2023-03-27T14:47:03.927Z,2.20
2023-03-27T14:50:13.871Z,1.67
2023-03-27T14:53:22.112Z,1.70
2023-03-27T14:56:45.889Z,2.03
2023-03-27T15:00:17.870Z,2.10
2023-03-27T15:03:23.817Z,1.80
2023-03-27T15:06:26.586Z,1.70
2023-03-27T15:09:33.962Z,1.90
2023-03-27T15:13:10.555Z,1.80
2023-03-27T15:16:21.051Z,1.40
2023-03-27T15:19:27.568Z,1.95
2023-03-27T15:22:39.366Z,1.60
2023-03-27T15:25:46.460Z,1.90
2023-03-27T15:29:03.895Z,1.80
2023-03-27T15:32:14.983Z,1.50
2023-03-27T15:35:40.346Z,1.60
2023-03-27T15:38:42.980Z,1.47
2023-03-27T15:41:50.843Z,1.67
2023-03-27T15:44:53.267Z,1.90
2023-03-27T15:48:06.760Z,1.77
2023-03-27T15:51:18.331Z,1.95
2023-03-27T15:54:35.048Z,1.57
2023-03-27T15:57:37.717Z,2.03
2023-03-27T16:00:48.232Z,1.58
2023-03-27T16:03:51.648Z,1.63
2023-03-27T16:07:06.129Z,1.90
2023-03-27T16:10:09.398Z,1.80
2023-03-27T16:13:25.722Z,1.97
2023-03-27T16:16:34.018Z,1.67
2023-03-27T16:19:56.442Z,1.30
2023-03-27T16:22:58.818Z,1.50
2023-03-27T16:26:01.733Z,1.50
2023-03-27T16:29:04.979Z,1.50
2023-03-27T16:32:11.938Z,1.58
2023-03-27T16:35:14.368Z,1.60
2023-03-27T16:38:17.893Z,1.35
2023-03-27T16:41:20.331Z,1.40
2023-03-27T16:44:22.713Z,1.40
2023-03-27T16:47:26.016Z,1.33
2023-03-27T16:50:30.796Z,1.50
2023-03-27T16:53:33.128Z,1.30
2023-03-27T16:56:35.637Z,1.30
2023-03-27T16:59:38.010Z,2.03
2023-03-27T17:02:40.977Z,1.70
2023-03-27T17:05:44.185Z,1.10
2023-03-27T17:08:46.715Z,1.60
2023-03-27T17:11:49.367Z,1.57
2023-03-27T17:14:52.556Z,1.10
2023-03-27T17:17:55.077Z,1.40
2023-03-27T17:20:57.672Z,1.20
2023-03-27T17:24:01.041Z,1.48
2023-03-27T17:27:03.853Z,1.37
2023-03-27T17:30:08.684Z,1.30
2023-03-27T17:33:12.157Z,1.42
2023-03-27T17:36:21.659Z,1.30
2023-03-27T17:39:29.399Z,1.30
2023-03-27T17:42:32.322Z,1.50
2023-03-27T17:45:34.778Z,1.37
2023-03-27T17:48:37.607Z,1.40
2023-03-27T17:51:41.197Z,1.17
2023-03-27T17:54:43.565Z,1.10
2023-03-27T17:57:50.947Z,1.13
2023-03-27T18:00:58.322Z,1.20
2023-03-27T18:04:01.020Z,1.15
2023-03-27T18:07:03.629Z,1.10
2023-03-27T18:10:14.303Z,1.25
2023-03-27T18:13:19.816Z,1.53
2023-03-27T18:16:24.538Z,1.17
2023-03-27T18:19:28.438Z,1.40
2023-03-27T18:22:31.797Z,1.30
2023-03-27T18:25:34.336Z,1.00
2023-03-27T18:28:36.999Z,1.10
2023-03-27T18:31:39.499Z,1.20
2023-03-27T18:34:42.160Z,1.40
2023-03-27T18:37:46.479Z,1.65
2023-03-27T18:40:49.205Z,1.30
2023-03-27T18:43:51.561Z,1.33
2023-03-27T18:46:54.357Z,1.07
2023-03-27T18:49:57.615Z,1.38
2023-03-27T18:53:00.490Z,1.10
2023-03-27T18:56:03.393Z,1.10
2023-03-27T18:59:08.107Z,1.30
2023-03-27T19:02:11.661Z,1.83
2023-03-27T19:05:16.202Z,1.20
2023-03-27T19:08:19.823Z,1.40
2023-03-27T19:11:22.954Z,1.20
2023-03-27T19:15:13.318Z,1.17
2023-03-27T19:18:42.195Z,1.30
2023-03-27T19:22:10.880Z,1.27
2023-03-27T19:25:19.540Z,1.10
2023-03-27T19:28:22.218Z,1.00
2023-03-27T19:31:24.694Z,1.10
2023-03-27T19:34:41.975Z,1.20
2023-03-27T19:37:46.223Z,1.00
2023-03-27T19:40:48.803Z,1.20
2023-03-27T19:43:51.629Z,1.20
2023-03-27T19:46:54.455Z,1.30
2023-03-27T19:49:57.117Z,1.00
2023-03-27T19:53:21.702Z,1.05
2023-03-27T19:56:24.282Z,1.27
2023-03-27T19:59:30.768Z,1.17
2023-03-27T20:02:33.811Z,1.07
2023-03-27T20:05:40.515Z,1.10
2023-03-27T20:08:43.111Z,0.98
2023-03-27T20:11:49.068Z,1.15
2023-03-27T20:15:02.370Z,1.42
2023-03-27T20:18:10.120Z,1.10
2023-03-27T20:21:13.859Z,1.10
2023-03-27T20:24:18.412Z,0.98
2023-03-27T20:27:27.314Z,1.00
2023-03-27T20:30:30.683Z,1.05
2023-03-27T20:33:33.188Z,1.03
2023-03-27T20:36:38.996Z,1.20
2023-03-27T20:39:55.043Z,1.00
2023-03-27T20:43:06.332Z,1.25
2023-03-27T20:46:10.818Z,1.20
2023-03-27T20:49:37.579Z,1.07
2023-03-27T20:52:48.270Z,1.00
2023-03-27T20:55:59.653Z,0.93
2023-03-27T20:59:02.576Z,0.95
2023-03-27T21:02:05.752Z,0.88
2023-03-27T21:05:08.325Z,0.80
2023-03-27T21:08:12.805Z,0.90
2023-03-27T21:11:15.315Z,0.98
2023-03-27T21:14:17.658Z,1.00
2023-03-27T21:17:20.060Z,1.08
2023-03-27T21:20:22.431Z,1.47
2023-03-27T21:23:24.818Z,0.90
2023-03-27T21:26:27.228Z,0.90
2023-03-27T21:29:31.214Z,0.95
2023-03-27T21:32:33.608Z,1.20
2023-03-27T21:35:41.210Z,1.10
2023-03-27T21:38:44.529Z,0.70
2023-03-27T21:41:46.836Z,1.00
2023-03-27T21:44:53.669Z,0.90
2023-03-27T21:47:58.192Z,0.80
2023-03-27T21:51:05.446Z,0.90
2023-03-27T21:54:07.820Z,0.90
2023-03-27T21:57:10.434Z,1.00
2023-03-27T22:00:14.640Z,0.80
2023-03-27T22:03:17.029Z,0.93
2023-03-27T22:06:19.492Z,1.10
2023-03-27T22:09:21.961Z,0.80
2023-03-27T22:12:24.340Z,1.10
2023-03-27T22:15:26.992Z,0.88
2023-03-27T22:18:31.456Z,1.10
2023-03-27T22:21:34.828Z,1.10
2023-03-27T22:24:37.244Z,0.90
2023-03-27T22:27:40.073Z,1.10
2023-03-27T22:30:42.445Z,0.98
2023-03-27T22:33:45.394Z,0.90
2023-03-27T22:36:47.806Z,0.90
2023-03-27T22:39:50.426Z,0.93
2023-03-27T22:42:52.929Z,1.13
2023-03-27T22:45:55.608Z,1.10
2023-03-27T22:48:58.528Z,1.05
2023-03-27T22:52:01.231Z,0.83
2023-03-27T22:55:04.305Z,0.90
2023-03-27T22:58:06.746Z,0.80
2023-03-27T23:01:09.096Z,0.80
2023-03-27T23:04:11.650Z,0.73
2023-03-27T23:07:14.010Z,0.90
2023-03-27T23:10:16.359Z,0.83
2023-03-27T23:13:18.658Z,0.80
2023-03-27T23:16:21.113Z,0.82
2023-03-27T23:19:23.487Z,0.90
2023-03-27T23:22:25.888Z,0.90
2023-03-27T23:25:28.251Z,0.93
2023-03-27T23:28:32.774Z,0.80
2023-03-27T23:31:35.315Z,0.70
2023-03-27T23:34:37.796Z,0.93
2023-03-27T23:37:40.176Z,0.80
2023-03-27T23:40:42.581Z,0.87
2023-03-27T23:43:45.622Z,0.80
2023-03-27T23:46:47.984Z,0.80
2023-03-27T23:49:50.389Z,0.60
2023-03-27T23:52:52.791Z,0.90
2023-03-27T23:55:56.724Z,0.83
2023-03-27T23:58:59.263Z,0.80
